Time;durP1;ratioP1;P1;durP2;ratioP2;P2;SDS_P1;SDS_P2;PMS_P1;PMS_P2;Temp;Humidity;BMP_temperature;BMP_pressure;BME280_temperature;BME280_humidity;BME280_pressure;Samples;Min_cycle;Max_cycle;Signal;HPM_P1;HPM_P2
2021/11/29 00:01:08;;;;;;;35.37;18.87;;;;;;;;;;4993923;28;20668;-49
2021/11/29 00:03:35;;;;;;;36.10;18.42;;;;;;;;;;4994318;28;20397;-49
2021/11/29 00:06:01;;;;;;;38.00;18.23;;;;;;;;;;4994123;28;20209;-50
2021/11/29 00:08:27;;;;;;;34.83;18.83;;;;;;;;;;4994259;28;20167;-49
2021/11/29 00:10:53;;;;;;;36.73;18.93;;;;;;;;;;4993831;28;20201;-49
2021/11/29 00:13:19;;;;;;;31.97;18.67;;;;;;;;;;4993998;28;20400;-49
2021/11/29 00:15:45;;;;;;;32.03;17.53;;;;;;;;;;4994160;28;20404;-49
2021/11/29 00:18:11;;;;;;;39.20;18.10;;;;;;;;;;4994136;28;20408;-49
2021/11/29 00:20:37;;;;;;;36.47;20.57;;;;;;;;;;4993876;28;20201;-49
2021/11/29 00:23:03;;;;;;;41.53;18.20;;;;;;;;;;4993791;28;20401;-49
2021/11/29 00:25:29;;;;;;;39.85;19.83;;;;;;;;;;4993858;28;20228;-49
2021/11/29 00:27:55;;;;;;;42.97;19.42;;;;;;;;;;4994637;28;20174;-49
2021/11/29 00:30:22;;;;;;;44.83;18.85;;;;;;;;;;4993736;28;20192;-49
2021/11/29 00:32:48;;;;;;;42.22;20.63;;;;;;;;;;4993737;28;20173;-49
2021/11/29 00:35:14;;;;;;;50.00;21.00;;;;;;;;;;4993768;28;20231;-49
2021/11/29 00:37:40;;;;;;;38.47;19.48;;;;;;;;;;4993805;28;20482;-49
2021/11/29 00:40:08;;;;;;;37.57;18.50;;;;;;;;;;4993799;28;20254;-50
2021/11/29 00:42:34;;;;;;;38.63;19.65;;;;;;;;;;4994134;28;20777;-49
2021/11/29 00:45:00;;;;;;;42.00;18.43;;;;;;;;;;4993263;28;20193;-49
2021/11/29 00:47:26;;;;;;;34.13;16.70;;;;;;;;;;4993664;28;20396;-50
2021/11/29 00:49:52;;;;;;;38.00;18.17;;;;;;;;;;4993336;28;20404;-51
2021/11/29 00:52:18;;;;;;;46.40;19.48;;;;;;;;;;4993335;28;20428;-51
2021/11/29 00:54:44;;;;;;;34.43;16.90;;;;;;;;;;4993121;28;20178;-50
2021/11/29 00:57:10;;;;;;;27.17;15.40;;;;;;;;;;4993298;28;20408;-49
2021/11/29 00:59:36;;;;;;;25.97;15.50;;;;;;;;;;4993257;28;20404;-50
2021/11/29 01:02:02;;;;;;;26.23;15.30;;;;;;;;;;4993179;28;20428;-49
2021/11/29 01:04:28;;;;;;;34.08;16.15;;;;;;;;;;4993365;28;20169;-50
2021/11/29 01:06:54;;;;;;;28.58;14.82;;;;;;;;;;4993188;28;20169;-50
2021/11/29 01:09:20;;;;;;;28.43;16.17;;;;;;;;;;4993349;28;20632;-50
2021/11/29 01:11:46;;;;;;;36.28;16.13;;;;;;;;;;4992870;28;20503;-49
2021/11/29 01:14:12;;;;;;;30.50;16.83;;;;;;;;;;4993072;28;20256;-48
2021/11/29 01:16:38;;;;;;;32.77;17.60;;;;;;;;;;4993095;28;20471;-50
2021/11/29 01:19:04;;;;;;;26.95;15.13;;;;;;;;;;4993342;28;20414;-50
2021/11/29 01:21:30;;;;;;;29.85;16.23;;;;;;;;;;4992784;28;20189;-49
2021/11/29 01:23:56;;;;;;;33.15;16.35;;;;;;;;;;4993060;28;20661;-51
2021/11/29 01:26:22;;;;;;;36.97;16.87;;;;;;;;;;4992771;28;20232;-50
2021/11/29 01:28:48;;;;;;;27.03;15.93;;;;;;;;;;4992838;28;20888;-51
2021/11/29 01:31:14;;;;;;;33.60;14.83;;;;;;;;;;4992719;28;20423;-50
2021/11/29 01:33:40;;;;;;;27.83;15.63;;;;;;;;;;4992902;28;20396;-50
2021/11/29 01:36:06;;;;;;;33.20;14.40;;;;;;;;;;4992884;28;20707;-50
2021/11/29 01:38:32;;;;;;;36.20;15.93;;;;;;;;;;4975548;28;20790;-50
2021/11/29 01:40:58;;;;;;;29.33;14.80;;;;;;;;;;4992420;28;20207;-50
2021/11/29 01:43:24;;;;;;;25.97;14.83;;;;;;;;;;4992481;28;20405;-49
2021/11/29 01:45:52;;;;;;;21.27;13.65;;;;;;;;;;4992700;28;20483;-49
2021/11/29 01:48:18;;;;;;;23.30;12.88;;;;;;;;;;4992648;28;20173;-50
2021/11/29 01:50:46;;;;;;;26.27;13.60;;;;;;;;;;4992490;28;20279;-50
2021/11/29 01:53:12;;;;;;;20.15;12.60;;;;;;;;;;4992454;28;20232;-50
2021/11/29 01:55:39;;;;;;;33.28;12.52;;;;;;;;;;4992477;28;20181;-50
2021/11/29 01:58:06;;;;;;;26.38;13.90;;;;;;;;;;4992591;28;20177;-49
2021/11/29 02:00:33;;;;;;;23.05;12.82;;;;;;;;;;4992156;28;20238;-50
2021/11/29 02:02:59;;;;;;;27.67;13.13;;;;;;;;;;4992549;28;20168;-49
2021/11/29 02:05:26;;;;;;;30.98;13.85;;;;;;;;;;4992465;28;20334;-50
2021/11/29 02:07:52;;;;;;;20.92;12.73;;;;;;;;;;4994660;28;20644;-49
2021/11/29 02:10:18;;;;;;;20.92;11.85;;;;;;;;;;4996012;28;20193;-48
2021/11/29 02:12:45;;;;;;;25.00;13.93;;;;;;;;;;4996353;28;20177;-50
2021/11/29 02:15:12;;;;;;;28.10;12.68;;;;;;;;;;4996438;28;20173;-49
2021/11/29 02:17:38;;;;;;;24.95;13.73;;;;;;;;;;4996307;28;20181;-51
2021/11/29 02:20:05;;;;;;;22.92;12.75;;;;;;;;;;4996251;28;20231;-50
2021/11/29 02:22:31;;;;;;;24.60;11.80;;;;;;;;;;4996342;28;20176;-49
2021/11/29 02:24:57;;;;;;;20.48;12.15;;;;;;;;;;4996093;28;20204;-50
2021/11/29 02:27:23;;;;;;;19.45;12.00;;;;;;;;;;4996054;28;20223;-49
2021/11/29 02:29:56;;;;;;;19.98;11.23;;;;;;;;;;4995885;28;20169;-50
2021/11/29 02:32:22;;;;;;;18.50;9.80;;;;;;;;;;4996080;28;20634;-49
2021/11/29 02:34:48;;;;;;;21.20;10.23;;;;;;;;;;4996001;28;20223;-50
2021/11/29 02:37:15;;;;;;;17.13;10.18;;;;;;;;;;4996477;28;20762;-50
2021/11/29 02:39:41;;;;;;;19.52;9.68;;;;;;;;;;4995716;28;20165;-50
2021/11/29 02:42:09;;;;;;;17.25;10.25;;;;;;;;;;4996134;28;20192;-50
2021/11/29 02:44:35;;;;;;;21.88;10.57;;;;;;;;;;4995654;28;20173;-50
2021/11/29 02:47:01;;;;;;;17.23;9.48;;;;;;;;;;4996065;28;20189;-50
2021/11/29 02:49:28;;;;;;;16.10;10.18;;;;;;;;;;4995727;28;20280;-50
2021/11/29 02:51:58;;;;;;;17.17;11.23;;;;;;;;;;4995490;28;20543;-50
2021/11/29 02:54:26;;;;;;;13.10;8.75;;;;;;;;;;4995678;28;20180;-50
2021/11/29 02:56:54;;;;;;;11.23;8.75;;;;;;;;;;4995726;28;20177;-49
2021/11/29 02:59:21;;;;;;;17.13;9.68;;;;;;;;;;4996090;28;20169;-51
2021/11/29 03:01:48;;;;;;;21.42;10.10;;;;;;;;;;4995438;28;20247;-50
2021/11/29 03:04:14;;;;;;;11.20;8.98;;;;;;;;;;4995380;28;20172;-50
2021/11/29 03:06:40;;;;;;;16.53;9.67;;;;;;;;;;4995341;28;20189;-50
2021/11/29 03:09:07;;;;;;;17.98;9.95;;;;;;;;;;4995561;28;20472;-50
2021/11/29 03:11:34;;;;;;;10.00;7.68;;;;;;;;;;4994971;28;20212;-50
2021/11/29 03:14:00;;;;;;;16.80;8.60;;;;;;;;;;4995456;28;20173;-48
2021/11/29 03:16:26;;;;;;;11.45;8.00;;;;;;;;;;4995314;28;20247;-49
2021/11/29 03:18:52;;;;;;;14.77;8.40;;;;;;;;;;4995110;28;20172;-50
2021/11/29 03:21:19;;;;;;;11.63;7.90;;;;;;;;;;4995334;28;20469;-50
2021/11/29 03:23:46;;;;;;;11.68;7.57;;;;;;;;;;4995110;28;20280;-50
2021/11/29 03:26:15;;;;;;;11.80;8.60;;;;;;;;;;4995210;28;20216;-49
2021/11/29 03:28:42;;;;;;;10.60;8.13;;;;;;;;;;4994996;28;20165;-49
2021/11/29 03:31:09;;;;;;;9.65;8.10;;;;;;;;;;4994876;28;20213;-49
2021/11/29 03:33:35;;;;;;;13.38;7.43;;;;;;;;;;4994892;28;20173;-50
2021/11/29 03:36:02;;;;;;;9.57;8.00;;;;;;;;;;4995108;28;20177;-49
2021/11/29 03:38:28;;;;;;;18.45;9.00;;;;;;;;;;4994998;28;20173;-49
2021/11/29 03:40:54;;;;;;;16.73;8.73;;;;;;;;;;4994586;28;20189;-49
2021/11/29 03:43:20;;;;;;;16.77;9.63;;;;;;;;;;4994733;28;20258;-50
2021/11/29 03:45:46;;;;;;;10.90;8.63;;;;;;;;;;4994715;28;20224;-50
2021/11/29 03:48:12;;;;;;;9.07;7.55;;;;;;;;;;4994666;28;20892;-50
2021/11/29 03:50:38;;;;;;;9.07;7.00;;;;;;;;;;4994422;28;20197;-49
2021/11/29 03:53:04;;;;;;;11.65;8.02;;;;;;;;;;4994509;28;20423;-49
2021/11/29 03:55:30;;;;;;;12.40;7.23;;;;;;;;;;4994576;28;20176;-50
2021/11/29 03:57:56;;;;;;;9.70;7.15;;;;;;;;;;4994838;28;20754;-50
2021/11/29 04:00:22;;;;;;;9.33;8.10;;;;;;;;;;4994078;28;20189;-50
2021/11/29 04:02:48;;;;;;;11.87;7.90;;;;;;;;;;4994521;28;20903;-50
2021/11/29 04:05:14;;;;;;;10.63;7.33;;;;;;;;;;4994271;28;20451;-50
2021/11/29 04:07:40;;;;;;;16.35;6.90;;;;;;;;;;4994584;28;20404;-49
2021/11/29 04:10:07;;;;;;;9.68;7.10;;;;;;;;;;4994532;28;20192;-51
2021/11/29 04:12:33;;;;;;;11.40;7.68;;;;;;;;;;4994162;28;20251;-50
2021/11/29 04:14:59;;;;;;;14.32;8.10;;;;;;;;;;4994198;28;20169;-49
2021/11/29 04:17:25;;;;;;;18.17;7.70;;;;;;;;;;4994170;28;20541;-50
2021/11/29 04:19:51;;;;;;;11.83;7.37;;;;;;;;;;4993920;28;20467;-49
2021/11/29 04:22:17;;;;;;;20.05;8.05;;;;;;;;;;4994299;28;20405;-51
2021/11/29 04:24:45;;;;;;;11.23;7.22;;;;;;;;;;4994124;28;20205;-50
2021/11/29 04:27:11;;;;;;;12.93;7.75;;;;;;;;;;4977195;28;20200;-49
2021/11/29 04:29:43;;;;;;;11.15;6.80;;;;;;;;;;4993164;28;20608;-47
2021/11/29 04:32:09;;;;;;;9.77;6.97;;;;;;;;;;4993940;28;20542;-50
2021/11/29 04:34:36;;;;;;;8.73;6.43;;;;;;;;;;4993833;28;20165;-49
2021/11/29 04:37:03;;;;;;;12.10;6.35;;;;;;;;;;4993806;28;20264;-49
2021/11/29 04:39:30;;;;;;;8.40;6.20;;;;;;;;;;4993699;28;20157;-49
2021/11/29 04:41:56;;;;;;;10.45;7.05;;;;;;;;;;4994105;28;20554;-49
2021/11/29 04:44:22;;;;;;;10.10;6.50;;;;;;;;;;4993955;28;20200;-49
2021/11/29 04:46:48;;;;;;;8.75;6.22;;;;;;;;;;4993527;28;20408;-50
2021/11/29 04:49:14;;;;;;;11.00;6.28;;;;;;;;;;4993699;28;20161;-48
2021/11/29 04:51:40;;;;;;;7.67;6.40;;;;;;;;;;4993478;28;20328;-51
2021/11/29 04:54:08;;;;;;;9.60;7.03;;;;;;;;;;4993834;28;20424;-50
2021/11/29 04:56:35;;;;;;;7.40;6.65;;;;;;;;;;4993414;28;20400;-50
2021/11/29 04:59:01;;;;;;;13.45;8.48;;;;;;;;;;4993524;28;20173;-48
2021/11/29 05:01:26;;;;;;;8.63;7.32;;;;;;;;;;4993296;28;20291;-49
2021/11/29 05:03:53;;;;;;;10.17;8.00;;;;;;;;;;4993346;28;20255;-50
2021/11/29 05:06:19;;;;;;;10.10;7.43;;;;;;;;;;4993179;28;20453;-49
2021/11/29 05:08:45;;;;;;;9.07;7.32;;;;;;;;;;4993362;28;20165;-50
2021/11/29 05:11:11;;;;;;;6.40;5.80;;;;;;;;;;4992950;28;20243;-49
2021/11/29 05:13:37;;;;;;;10.43;7.10;;;;;;;;;;4993117;28;20173;-50
2021/11/29 05:16:04;;;;;;;10.60;6.20;;;;;;;;;;4993308;28;20180;-50
2021/11/29 05:18:30;;;;;;;10.57;6.70;;;;;;;;;;4993264;28;20177;-50
2021/11/29 05:20:56;;;;;;;11.57;7.25;;;;;;;;;;4992986;28;20212;-50
2021/11/29 05:23:22;;;;;;;6.82;6.10;;;;;;;;;;4993022;28;20173;-50
2021/11/29 05:25:48;;;;;;;10.30;7.57;;;;;;;;;;4993091;28;20258;-50
2021/11/29 05:28:14;;;;;;;10.57;7.45;;;;;;;;;;4992882;28;20169;-50
2021/11/29 05:30:40;;;;;;;11.50;6.90;;;;;;;;;;4992696;28;20193;-49
2021/11/29 05:33:06;;;;;;;15.43;7.20;;;;;;;;;;4992838;28;20169;-50
2021/11/29 05:35:32;;;;;;;9.63;6.63;;;;;;;;;;4992909;28;20404;-50
2021/11/29 05:37:58;;;;;;;12.30;6.53;;;;;;;;;;4992924;28;20181;-50
2021/11/29 05:40:24;;;;;;;9.05;6.93;;;;;;;;;;4992253;28;20685;-50
2021/11/29 05:42:50;;;;;;;8.73;6.60;;;;;;;;;;4992000;28;20251;-50
2021/11/29 05:45:16;;;;;;;7.68;5.40;;;;;;;;;;4992566;28;20977;-50
2021/11/29 05:47:42;;;;;;;9.60;6.23;;;;;;;;;;4993058;28;20165;-50
2021/11/29 05:50:09;;;;;;;8.65;6.07;;;;;;;;;;4992380;28;20491;-49
2021/11/29 05:52:36;;;;;;;13.52;6.95;;;;;;;;;;4992705;28;20209;-50
2021/11/29 05:55:02;;;;;;;15.55;6.50;;;;;;;;;;4992458;28;20169;-49
2021/11/29 05:57:28;;;;;;;7.25;5.55;;;;;;;;;;4992513;28;20180;-50
2021/11/29 05:59:54;;;;;;;8.50;6.30;;;;;;;;;;4992392;28;20172;-50
2021/11/29 06:02:19;;;;;;;10.93;7.00;;;;;;;;;;4992883;28;20462;-51
2021/11/29 06:04:45;;;;;;;7.37;6.43;;;;;;;;;;4992885;28;20899;-49
2021/11/29 06:07:11;;;;;;;8.90;6.27;;;;;;;;;;4992646;28;20512;-50
2021/11/29 06:09:37;;;;;;;14.03;6.50;;;;;;;;;;4992336;28;20443;-49
2021/11/29 06:12:03;;;;;;;13.33;6.73;;;;;;;;;;4992097;28;20416;-49
2021/11/29 06:14:30;;;;;;;13.00;6.85;;;;;;;;;;4992376;28;20405;-49
2021/11/29 06:16:56;;;;;;;7.90;6.53;;;;;;;;;;4992471;28;20194;-49
2021/11/29 06:19:22;;;;;;;7.70;6.90;;;;;;;;;;4992284;28;20668;-48
2021/11/29 06:21:48;;;;;;;8.98;5.90;;;;;;;;;;4992114;28;20752;-49
2021/11/29 06:24:14;;;;;;;11.95;7.38;;;;;;;;;;4992147;28;20592;-48
2021/11/29 06:26:40;;;;;;;10.05;6.53;;;;;;;;;;4992161;28;20207;-50
2021/11/29 06:29:06;;;;;;;10.83;6.83;;;;;;;;;;4992213;28;20169;-50
2021/11/29 06:31:32;;;;;;;11.75;6.97;;;;;;;;;;4993022;28;20488;-50
2021/11/29 06:33:58;;;;;;;7.55;6.18;;;;;;;;;;4974652;28;20281;-50
2021/11/29 06:36:25;;;;;;;7.43;6.45;;;;;;;;;;4992291;28;20180;-51
2021/11/29 06:38:53;;;;;;;8.27;6.35;;;;;;;;;;4992192;28;20649;-49
2021/11/29 06:41:20;;;;;;;8.73;6.82;;;;;;;;;;4991933;28;20189;-50
2021/11/29 06:43:46;;;;;;;8.02;7.20;;;;;;;;;;4992373;28;20549;-49
2021/11/29 06:46:12;;;;;;;8.70;6.75;;;;;;;;;;4992060;28;20668;-50
2021/11/29 06:48:38;;;;;;;10.93;6.40;;;;;;;;;;4992296;28;20169;-49
2021/11/29 06:51:04;;;;;;;11.43;6.20;;;;;;;;;;4991719;28;20416;-49
2021/11/29 06:53:30;;;;;;;8.88;7.15;;;;;;;;;;4993298;28;20181;-49
2021/11/29 06:55:56;;;;;;;10.82;6.70;;;;;;;;;;4995810;28;20170;-49
2021/11/29 06:58:23;;;;;;;9.32;7.32;;;;;;;;;;4996070;28;20169;-49
2021/11/29 07:00:50;;;;;;;6.57;5.80;;;;;;;;;;4995260;28;20189;-51
2021/11/29 07:03:16;;;;;;;8.50;6.38;;;;;;;;;;4995668;28;20197;-50
2021/11/29 07:05:42;;;;;;;9.47;7.03;;;;;;;;;;4995358;28;20657;-49
2021/11/29 07:08:08;;;;;;;8.85;7.70;;;;;;;;;;4995351;28;20416;-50
2021/11/29 07:10:40;;;;;;;11.00;8.15;;;;;;;;;;4995220;28;20185;-50
2021/11/29 07:13:06;;;;;;;8.18;7.35;;;;;;;;;;4995356;28;20569;-50
2021/11/29 07:15:33;;;;;;;11.52;8.10;;;;;;;;;;4995341;28;20633;-51
2021/11/29 07:17:59;;;;;;;13.32;6.90;;;;;;;;;;4995484;28;20533;-51
2021/11/29 07:20:25;;;;;;;8.73;7.55;;;;;;;;;;4995013;28;20220;-49
2021/11/29 07:22:51;;;;;;;10.57;7.87;;;;;;;;;;4995373;28;20634;-50
2021/11/29 07:25:17;;;;;;;11.95;8.75;;;;;;;;;;4995104;28;21027;-49
2021/11/29 07:27:43;;;;;;;12.48;8.27;;;;;;;;;;4995320;28;20176;-51
2021/11/29 07:30:11;;;;;;;13.52;8.85;;;;;;;;;;4994873;28;20568;-50
2021/11/29 07:32:37;;;;;;;14.25;8.82;;;;;;;;;;4995274;28;20680;-49
2021/11/29 07:35:04;;;;;;;11.77;8.40;;;;;;;;;;4994892;28;20630;-50
2021/11/29 07:37:30;;;;;;;12.45;8.93;;;;;;;;;;4995395;28;20177;-50
2021/11/29 07:39:56;;;;;;;10.63;9.00;;;;;;;;;;4995030;28;20165;-50
2021/11/29 07:42:22;;;;;;;14.65;8.55;;;;;;;;;;4995221;28;20398;-50
2021/11/29 07:44:48;;;;;;;9.80;8.77;;;;;;;;;;4995093;28;20207;-50
2021/11/29 07:47:14;;;;;;;10.40;8.80;;;;;;;;;;4995259;28;20171;-49
2021/11/29 07:49:40;;;;;;;13.98;10.02;;;;;;;;;;4994674;28;20403;-51
2021/11/29 07:52:08;;;;;;;10.00;8.63;;;;;;;;;;4994610;28;20553;-49
2021/11/29 07:54:34;;;;;;;12.00;8.57;;;;;;;;;;4994861;28;20411;-49
2021/11/29 07:57:00;;;;;;;11.20;9.05;;;;;;;;;;4994819;28;20529;-49
2021/11/29 07:59:26;;;;;;;11.18;9.25;;;;;;;;;;4994664;28;20276;-52
2021/11/29 08:01:52;;;;;;;9.70;8.20;;;;;;;;;;4994343;28;20697;-51
2021/11/29 08:04:18;;;;;;;11.47;8.67;;;;;;;;;;4993911;28;20808;-50
2021/11/29 08:06:44;;;;;;;10.80;8.43;;;;;;;;;;4994065;28;20504;-50
2021/11/29 08:09:10;;;;;;;10.87;9.77;;;;;;;;;;4994494;28;20455;-50
2021/11/29 08:11:36;;;;;;;11.03;8.90;;;;;;;;;;4994289;28;20447;-49
2021/11/29 08:14:02;;;;;;;10.27;9.18;;;;;;;;;;4994529;28;20400;-50
2021/11/29 08:16:28;;;;;;;11.35;9.38;;;;;;;;;;4977142;28;20183;-50
2021/11/29 08:18:54;;;;;;;13.77;9.17;;;;;;;;;;4994457;28;20530;-49
2021/11/29 08:21:21;;;;;;;12.02;8.68;;;;;;;;;;4994221;28;20955;-51
2021/11/29 08:23:47;;;;;;;10.10;7.90;;;;;;;;;;4994249;28;20227;-49
2021/11/29 08:26:13;;;;;;;14.80;9.37;;;;;;;;;;4994499;28;20604;-50
2021/11/29 08:28:39;;;;;;;10.80;8.68;;;;;;;;;;4994135;28;20979;-51
2021/11/29 08:31:05;;;;;;;9.13;7.27;;;;;;;;;;4993969;28;20280;-50
2021/11/29 08:33:31;;;;;;;8.85;7.95;;;;;;;;;;4993711;28;20400;-50
2021/11/29 08:35:57;;;;;;;11.03;8.17;;;;;;;;;;4993981;28;20185;-49
2021/11/29 08:38:23;;;;;;;7.33;6.63;;;;;;;;;;4994061;28;20400;-49
2021/11/29 08:40:49;;;;;;;8.83;7.57;;;;;;;;;;4993522;28;20439;-50
2021/11/29 08:43:17;;;;;;;8.40;7.13;;;;;;;;;;4993883;28;20419;-49
2021/11/29 08:45:43;;;;;;;8.20;7.22;;;;;;;;;;4994498;28;20345;-51
2021/11/29 08:48:10;;;;;;;8.40;6.88;;;;;;;;;;4994133;28;20511;-51
2021/11/29 08:50:37;;;;;;;9.20;7.40;;;;;;;;;;4993857;28;20204;-50
2021/11/29 08:53:06;;;;;;;9.18;7.72;;;;;;;;;;4994081;28;20672;-51
2021/11/29 08:55:32;;;;;;;9.00;7.57;;;;;;;;;;4993980;28;20223;-49
2021/11/29 08:57:59;;;;;;;11.48;8.20;;;;;;;;;;4993869;28;20176;-49
2021/11/29 09:00:26;;;;;;;9.23;8.23;;;;;;;;;;4988680;28;20280;-50
2021/11/29 09:02:52;;;;;;;10.57;9.02;;;;;;;;;;4992146;28;20281;-50
2021/11/29 09:05:18;;;;;;;9.68;8.07;;;;;;;;;;4993926;28;20193;-50
2021/11/29 09:07:45;;;;;;;11.80;9.75;;;;;;;;;;4994001;28;20212;-50
2021/11/29 09:10:11;;;;;;;10.55;8.52;;;;;;;;;;4993694;28;20204;-49
2021/11/29 09:12:38;;;;;;;10.98;9.35;;;;;;;;;;4993518;28;20531;-50
2021/11/29 09:15:05;;;;;;;11.70;8.27;;;;;;;;;;4993562;28;20184;-50
2021/11/29 09:17:31;;;;;;;11.05;9.57;;;;;;;;;;4993302;28;20173;-50
2021/11/29 09:19:58;;;;;;;13.93;9.88;;;;;;;;;;4993574;28;20439;-50
2021/11/29 09:22:24;;;;;;;18.00;10.32;;;;;;;;;;4993685;28;20183;-49
2021/11/29 09:24:50;;;;;;;16.70;10.55;;;;;;;;;;4993534;28;20180;-49
2021/11/29 09:27:16;;;;;;;15.40;10.57;;;;;;;;;;4993815;28;20169;-50
2021/11/29 09:29:45;;;;;;;17.48;11.63;;;;;;;;;;4993318;28;20400;-49
2021/11/29 09:32:11;;;;;;;12.65;10.75;;;;;;;;;;4993565;28;20181;-51
2021/11/29 09:34:37;;;;;;;21.50;10.80;;;;;;;;;;4993610;28;20166;-50
2021/11/29 09:37:03;;;;;;;19.38;11.18;;;;;;;;;;4993704;28;20189;-49
2021/11/29 09:39:29;;;;;;;14.63;10.30;;;;;;;;;;4993568;28;20180;-50
2021/11/29 09:41:55;;;;;;;19.73;12.80;;;;;;;;;;4993268;28;20499;-51
2021/11/29 09:44:21;;;;;;;14.43;11.40;;;;;;;;;;4992955;28;20609;-49
2021/11/29 09:46:47;;;;;;;18.37;12.80;;;;;;;;;;4992921;28;20456;-49
2021/11/29 09:49:13;;;;;;;17.50;13.40;;;;;;;;;;4992874;28;20447;-49
2021/11/29 09:51:39;;;;;;;16.73;12.00;;;;;;;;;;4992283;28;20454;-50
2021/11/29 09:54:07;;;;;;;17.65;12.98;;;;;;;;;;4992677;28;20857;-49
2021/11/29 09:56:34;;;;;;;18.00;13.25;;;;;;;;;;4992717;28;20180;-51
2021/11/29 09:59:00;;;;;;;17.90;13.88;;;;;;;;;;4993218;28;20227;-49
2021/11/29 10:01:26;;;;;;;21.10;13.33;;;;;;;;;;4992714;28;20204;-50
2021/11/29 10:03:52;;;;;;;20.58;14.68;;;;;;;;;;4993237;28;20408;-50
2021/11/29 10:06:18;;;;;;;19.58;14.60;;;;;;;;;;4993604;28;20201;-50
2021/11/29 10:08:44;;;;;;;21.00;13.87;;;;;;;;;;4993053;28;20245;-51
2021/11/29 10:11:11;;;;;;;22.23;15.38;;;;;;;;;;4993278;28;20412;-51
2021/11/29 10:13:56;;;;;;;20.25;15.63;;;;;;;;;;4993359;28;20176;-50
2021/11/29 10:16:41;;;;;;;23.10;15.48;;;;;;;;;;4993696;28;20174;-51
2021/11/29 10:19:21;;;;;;;47.38;17.23;;;;;;;;;;4992583;28;20234;-51
2021/11/29 10:21:47;;;;;;;25.65;17.38;;;;;;;;;;4993228;28;20185;-50
2021/11/29 10:24:16;;;;;;;24.77;16.23;;;;;;;;;;4993762;28;20172;-50
2021/11/29 10:26:47;;;;;;;25.83;16.88;;;;;;;;;;4993992;28;20794;-50
2021/11/29 10:29:14;;;;;;;30.40;16.77;;;;;;;;;;4996937;28;20211;-51
2021/11/29 10:31:51;;;;;;;27.20;16.88;;;;;;;;;;4997503;28;20200;-51
2021/11/29 10:34:19;;;;;;;24.92;16.95;;;;;;;;;;4998192;28;20165;-50
2021/11/29 10:36:47;;;;;;;27.75;18.13;;;;;;;;;;4998075;28;20179;-50
2021/11/29 10:39:14;;;;;;;30.77;18.55;;;;;;;;;;4997740;28;20173;-50
2021/11/29 10:41:45;;;;;;;28.55;18.05;;;;;;;;;;4997364;28;20723;-50
2021/11/29 10:44:17;;;;;;;28.20;18.52;;;;;;;;;;4997823;28;20280;-49
2021/11/29 10:46:44;;;;;;;29.15;19.10;;;;;;;;;;4998187;28;20328;-52
2021/11/29 10:49:12;;;;;;;30.63;19.30;;;;;;;;;;4996674;28;20173;-50
2021/11/29 10:51:39;;;;;;;31.38;17.90;;;;;;;;;;4998364;28;20191;-52
2021/11/29 10:54:07;;;;;;;30.77;19.77;;;;;;;;;;4997917;28;20185;-50
2021/11/29 10:56:35;;;;;;;30.88;20.23;;;;;;;;;;4998043;28;20165;-52
2021/11/29 10:59:03;;;;;;;30.73;19.73;;;;;;;;;;4998486;28;20173;-50
2021/11/29 11:01:35;;;;;;;26.88;18.45;;;;;;;;;;4997799;28;20673;-50
2021/11/29 11:04:01;;;;;;;30.65;18.35;;;;;;;;;;4999323;28;20167;-50
2021/11/29 11:06:28;;;;;;;29.55;19.70;;;;;;;;;;4998344;28;20196;-49
2021/11/29 11:08:54;;;;;;;28.10;19.63;;;;;;;;;;4998386;28;20542;-48
2021/11/29 11:11:31;;;;;;;30.67;17.90;;;;;;;;;;4997925;28;20480;-48
2021/11/29 11:14:07;;;;;;;29.67;19.33;;;;;;;;;;4997677;28;20506;-48
2021/11/29 11:16:39;;;;;;;28.90;18.77;;;;;;;;;;4997989;28;20644;-48
2021/11/29 11:19:05;;;;;;;31.00;20.20;;;;;;;;;;4997617;28;20220;-49
2021/11/29 11:21:34;;;;;;;28.85;20.27;;;;;;;;;;4997847;28;20192;-49
2021/11/29 11:24:18;;;;;;;25.80;19.33;;;;;;;;;;4997289;28;20607;-50
2021/11/29 11:26:45;;;;;;;25.50;17.25;;;;;;;;;;4997527;28;20204;-47
2021/11/29 11:29:15;;;;;;;27.63;17.98;;;;;;;;;;4997456;28;20176;-49
2021/11/29 11:31:41;;;;;;;26.45;17.73;;;;;;;;;;4997512;28;20220;-49
2021/11/29 11:34:08;;;;;;;27.37;17.90;;;;;;;;;;4996810;28;20169;-48
2021/11/29 11:36:35;;;;;;;22.38;16.33;;;;;;;;;;4997197;28;20901;-49
2021/11/29 11:39:05;;;;;;;21.40;16.33;;;;;;;;;;4996526;28;20208;-49
2021/11/29 11:41:34;;;;;;;25.95;16.88;;;;;;;;;;4989586;28;20604;-50
2021/11/29 11:44:01;;;;;;;20.33;14.10;;;;;;;;;;4996445;28;20181;-47
2021/11/29 11:46:28;;;;;;;23.73;14.63;;;;;;;;;;4996072;28;20299;-48
2021/11/29 11:48:57;;;;;;;21.67;14.32;;;;;;;;;;4996612;28;20169;-48
2021/11/29 11:51:23;;;;;;;20.00;14.93;;;;;;;;;;4995151;28;20185;-48
2021/11/29 11:53:50;;;;;;;21.80;14.13;;;;;;;;;;4996510;28;20184;-48
2021/11/29 11:56:16;;;;;;;22.23;14.50;;;;;;;;;;4997436;28;20304;-48
2021/11/29 11:59:03;;;;;;;19.37;14.77;;;;;;;;;;4992655;28;20456;-49
2021/11/29 12:01:30;;;;;;;20.90;15.52;;;;;;;;;;4994261;28;20806;-48
2021/11/29 12:03:56;;;;;;;26.20;16.15;;;;;;;;;;5004310;28;20180;-48
2021/11/29 12:06:33;;;;;;;19.43;15.10;;;;;;;;;;4990433;28;20216;-47
2021/11/29 12:09:01;;;;;;;25.13;15.73;;;;;;;;;;4996854;28;20431;-48
2021/11/29 12:11:29;;;;;;;17.50;13.32;;;;;;;;;;4996269;28;20268;-47
2021/11/29 12:14:12;;;;;;;22.63;13.93;;;;;;;;;;4995617;28;20180;-48
2021/11/29 12:16:40;;;;;;;19.33;13.85;;;;;;;;;;4995548;28;20227;-47
2021/11/29 12:19:08;;;;;;;21.00;13.40;;;;;;;;;;4994852;28;20671;-47
2021/11/29 12:21:36;;;;;;;18.63;13.82;;;;;;;;;;5010229;28;20259;-47
2021/11/29 12:24:04;;;;;;;18.17;12.85;;;;;;;;;;4995125;28;20198;-49
2021/11/29 12:26:46;;;;;;;17.05;13.20;;;;;;;;;;4990067;28;20193;-47
2021/11/29 12:29:21;;;;;;;17.52;13.18;;;;;;;;;;4985883;28;20647;-47
2021/11/29 12:31:48;;;;;;;16.90;11.77;;;;;;;;;;4995534;28;20211;-46
2021/11/29 12:34:14;;;;;;;12.05;9.52;;;;;;;;;;4993654;28;20169;-46
2021/11/29 12:36:55;;;;;;;20.55;11.50;;;;;;;;;;4993627;28;20219;-46
2021/11/29 12:39:54;;;;;;;15.15;10.38;;;;;;;;;;4992973;28;20600;-46
2021/11/29 12:44:47;;;;;;;9.37;7.57;;;;;;;;;;4993568;28;20177;-46
2021/11/29 12:47:17;;;;;;;8.65;7.55;;;;;;;;;;4993369;28;20439;-46
2021/11/29 12:49:43;;;;;;;11.68;7.95;;;;;;;;;;4992821;28;20248;-46
2021/11/29 12:52:29;;;;;;;10.02;6.93;;;;;;;;;;4991392;28;20668;-46
2021/11/29 12:54:56;;;;;;;9.13;6.75;;;;;;;;;;4993604;28;20168;-48
2021/11/29 12:57:33;;;;;;;10.95;8.73;;;;;;;;;;4992412;28;20169;-46
2021/11/29 13:00:02;;;;;;;13.48;8.98;;;;;;;;;;4990455;28;20161;-47
2021/11/29 13:02:45;;;;;;;12.50;9.05;;;;;;;;;;4993383;28;20173;-45
2021/11/29 13:05:26;;;;;;;16.45;9.65;;;;;;;;;;4986973;28;20301;-48
2021/11/29 13:08:13;;;;;;;12.13;8.90;;;;;;;;;;4973848;28;20253;-47
2021/11/29 13:10:58;;;;;;;8.40;7.18;;;;;;;;;;4973112;28;20185;-46
2021/11/29 13:13:24;;;;;;;13.25;7.05;;;;;;;;;;4956057;28;20228;-46
2021/11/29 13:15:51;;;;;;;9.32;7.10;;;;;;;;;;4973688;28;20176;-46
2021/11/29 13:18:40;;;;;;;14.07;6.85;;;;;;;;;;4973507;28;20645;-47
2021/11/29 13:21:06;;;;;;;7.80;6.47;;;;;;;;;;4965424;28;20205;-46
2021/11/29 13:23:32;;;;;;;14.53;6.93;;;;;;;;;;4973581;28;20543;-47
2021/11/29 13:26:02;;;;;;;6.30;5.70;;;;;;;;;;4973349;28;20667;-46
2021/11/29 13:28:28;;;;;;;8.40;6.38;;;;;;;;;;4973368;28;20448;-46
2021/11/29 13:30:54;;;;;;;6.10;5.50;;;;;;;;;;4972934;28;20190;-46
2021/11/29 13:33:20;;;;;;;12.90;7.00;;;;;;;;;;4973148;28;20184;-46
2021/11/29 13:35:47;;;;;;;10.77;7.47;;;;;;;;;;4973186;28;20878;-46
2021/11/29 13:38:13;;;;;;;11.80;8.48;;;;;;;;;;4973324;28;20610;-46
2021/11/29 13:40:39;;;;;;;13.63;9.38;;;;;;;;;;4973208;28;20248;-46
2021/11/29 13:43:04;;;;;;;10.80;8.10;;;;;;;;;;4973111;28;20240;-46
2021/11/29 13:45:32;;;;;;;11.23;7.77;;;;;;;;;;4972990;28;20453;-46
2021/11/29 13:47:58;;;;;;;10.02;8.77;;;;;;;;;;4972963;28;20758;-48
2021/11/29 13:50:28;;;;;;;12.52;8.27;;;;;;;;;;4972829;28;20812;-46
2021/11/29 13:52:59;;;;;;;15.20;9.82;;;;;;;;;;4972827;28;20264;-47
2021/11/29 13:55:27;;;;;;;9.15;7.65;;;;;;;;;;4972946;28;20161;-48
2021/11/29 13:57:54;;;;;;;10.98;8.57;;;;;;;;;;4973404;28;20177;-46
2021/11/29 14:00:28;;;;;;;10.90;7.60;;;;;;;;;;4972676;28;20221;-46
2021/11/29 14:03:03;;;;;;;11.70;8.93;;;;;;;;;;4972047;28;20428;-46
2021/11/29 14:05:31;;;;;;;18.08;9.27;;;;;;;;;;4972972;28;20456;-46
2021/11/29 14:07:57;;;;;;;8.77;7.30;;;;;;;;;;4972814;28;20205;-47
2021/11/29 14:10:30;;;;;;;8.83;6.93;;;;;;;;;;4971839;28;20214;-47
2021/11/29 14:12:55;;;;;;;12.40;8.05;;;;;;;;;;4971156;28;20417;-46
2021/11/29 14:15:21;;;;;;;9.63;8.27;;;;;;;;;;4972231;28;20178;-46
2021/11/29 14:17:51;;;;;;;9.37;7.30;;;;;;;;;;4972890;28;20450;-46
2021/11/29 14:20:17;;;;;;;9.43;7.93;;;;;;;;;;4972527;28;20893;-48
2021/11/29 14:22:50;;;;;;;7.43;6.80;;;;;;;;;;4972750;28;20674;-47
2021/11/29 14:25:17;;;;;;;8.85;6.88;;;;;;;;;;4979831;28;20924;-46
2021/11/29 14:27:43;;;;;;;7.18;6.47;;;;;;;;;;4992001;28;20188;-47
2021/11/29 14:30:09;;;;;;;8.85;7.72;;;;;;;;;;4991862;28;20181;-46
2021/11/29 14:32:35;;;;;;;9.32;7.30;;;;;;;;;;4992073;28;20169;-46